Time;durP1;ratioP1;P1;durP2;ratioP2;P2;SDS_P1;SDS_P2;PMS_P1;PMS_P2;Temp;Humidity;BMP_temperature;BMP_pressure;BME280_temperature;BME280_humidity;BME280_pressure;Samples;Min_cycle;Max_cycle;Signal;HPM_P1;HPM_P2
2023/01/05 00:02:05;;;;;;;8.87;1.83;;;9.20;99.90;;;;;;5011916;28;20473;-50
2023/01/05 00:04:32;;;;;;;7.23;2.03;;;9.20;99.90;;;;;;5014314;28;20486;-50
2023/01/05 00:07:00;;;;;;;5.03;2.30;;;9.20;99.90;;;;;;5003423;28;20519;-51
2023/01/05 00:09:26;;;;;;;5.97;2.80;;;9.20;99.90;;;;;;5011853;28;20962;-51
2023/01/05 00:23:09;;;;;;;6.20;1.87;;;9.00;99.90;;;;;;4970656;28;20822;-51
2023/01/05 00:25:38;;;;;;;3.20;1.60;;;9.10;99.90;;;;;;4983868;28;20516;-50
2023/01/05 00:28:05;;;;;;;4.00;1.50;;;9.10;99.90;;;;;;5011790;28;20944;-53
2023/01/05 00:30:34;;;;;;;8.93;2.37;;;9.00;99.90;;;;;;5012432;28;20445;-50
2023/01/05 00:33:01;;;;;;;9.10;2.40;;;9.00;99.90;;;;;;5011121;28;20593;-51
2023/01/05 00:35:29;;;;;;;9.10;2.40;;;9.00;99.90;;;;;;5011694;28;20462;-52
2023/01/05 00:37:55;;;;;;;7.93;2.53;;;8.90;99.90;;;;;;5008875;28;20523;-51
2023/01/05 00:40:23;;;;;;;6.30;2.30;;;9.00;99.90;;;;;;5004117;28;20475;-51
2023/01/05 00:42:50;;;;;;;6.40;1.70;;;8.90;99.90;;;;;;5012199;28;20516;-52
2023/01/05 00:45:19;;;;;;;11.03;2.53;;;9.00;99.90;;;;;;5010872;28;20485;-52
2023/01/05 00:47:46;;;;;;;10.40;2.20;;;9.00;99.90;;;;;;5011527;28;20896;-50
2023/01/05 00:50:14;;;;;;;11.03;2.23;;;9.00;99.90;;;;;;5010822;28;20466;-51
2023/01/05 00:52:41;;;;;;;6.60;2.20;;;8.90;99.90;;;;;;5011581;28;20951;-50
2023/01/05 00:55:08;;;;;;;7.97;2.47;;;9.00;99.90;;;;;;5011480;28;20512;-50
2023/01/05 00:57:36;;;;;;;4.87;1.93;;;9.00;99.90;;;;;;5010346;28;20623;-50
2023/01/05 01:00:04;;;;;;;4.93;1.73;;;9.00;99.90;;;;;;5011370;28;20992;-51
2023/01/05 01:02:30;;;;;;;4.00;1.50;;;9.10;99.90;;;;;;5012960;28;20466;-50
2023/01/05 01:04:57;;;;;;;5.97;2.20;;;9.10;99.90;;;;;;5005194;28;20541;-51
2023/01/05 01:07:24;;;;;;;16.50;2.90;;;9.10;99.90;;;;;;5011609;28;20987;-51
2023/01/05 01:09:50;;;;;;;12.70;2.70;;;9.20;99.90;;;;;;5011007;28;20980;-51
2023/01/05 01:12:17;;;;;;;8.53;3.07;;;9.40;74.20;;;;;;5009520;28;20531;-51
2023/01/05 01:14:48;;;;;;;17.30;2.80;;;9.40;77.70;;;;;;5008887;28;20490;-50
2023/01/05 01:17:15;;;;;;;7.93;2.03;;;9.40;99.20;;;;;;5011749;28;20442;-53
2023/01/05 01:19:41;;;;;;;6.50;2.30;;;9.40;94.70;;;;;;5011797;28;20880;-51
2023/01/05 01:22:08;;;;;;;9.20;2.40;;;9.40;20.20;;;;;;5011726;28;20508;-51
2023/01/05 01:24:35;;;;;;;6.80;2.00;;;9.40;22.40;;;;;;5011006;28;20536;-51
2023/01/05 01:27:02;;;;;;;8.30;2.40;;;9.50;23.50;;;;;;5010324;28;20546;-50
2023/01/05 01:29:29;;;;;;;9.27;2.83;;;9.60;36.00;;;;;;5017684;28;20492;-51
2023/01/05 01:31:57;;;;;;;5.50;2.50;;;9.50;29.30;;;;;;5011103;28;20465;-51
2023/01/05 01:34:23;;;;;;;6.57;2.90;;;9.50;28.10;;;;;;5008097;28;20488;-53
2023/01/05 01:36:50;;;;;;;4.30;2.00;;;9.50;33.70;;;;;;5004239;28;20466;-51
2023/01/05 01:39:16;;;;;;;7.00;1.80;;;9.50;30.70;;;;;;5006092;28;21149;-51
2023/01/05 01:41:43;;;;;;;9.13;2.20;;;9.60;30.70;;;;;;5009846;28;20960;-50
2023/01/05 01:44:47;;;;;;;3.70;2.13;;;9.60;41.30;;;;;;5009937;28;20489;-51
2023/01/05 01:47:19;;;;;;;6.53;2.40;;;9.60;39.10;;;;;;5006473;28;20513;-52
2023/01/05 01:49:46;;;;;;;8.40;2.50;;;9.60;49.00;;;;;;5009316;28;21037;-52
2023/01/05 01:52:12;;;;;;;6.77;2.03;;;9.70;49.90;;;;;;5007773;28;20470;-52
2023/01/05 01:54:39;;;;;;;7.57;1.83;;;9.70;57.00;;;;;;5010126;28;20511;-51
2023/01/05 01:57:09;;;;;;;5.40;2.50;;;9.70;56.90;;;;;;5010463;28;20447;-50
2023/01/05 01:59:36;;;;;;;9.60;1.93;;;9.80;65.60;;;;;;5006543;28;20517;-52
2023/01/05 02:02:03;;;;;;;4.50;1.87;;;9.80;64.70;;;;;;5008812;28;20466;-50
2023/01/05 02:04:32;;;;;;;12.60;3.00;;;9.80;65.20;;;;;;5008674;28;20508;-51
2023/01/05 02:07:00;;;;;;;7.53;2.03;;;9.80;66.40;;;;;;5013609;28;21060;-50
2023/01/05 02:09:27;;;;;;;5.57;1.90;;;9.80;60.20;;;;;;5011844;28;20454;-51
2023/01/05 02:12:03;;;;;;;5.00;1.70;;;9.80;60.00;;;;;;5002954;28;20462;-51
2023/01/05 02:14:38;;;;;;;12.07;2.67;;;9.80;59.50;;;;;;5007942;28;20842;-51
2023/01/05 02:17:15;;;;;;;4.23;1.63;;;9.80;61.40;;;;;;5013601;28;20465;-54
2023/01/05 02:20:24;;;;;;;7.90;2.30;;;9.80;53.40;;;;;;4999821;28;20461;-56
2023/01/05 02:23:24;;;;;;;7.50;2.00;;;9.80;59.70;;;;;;5008387;28;20449;-55
2023/01/05 02:26:13;;;;;;;8.50;2.53;;;9.90;58.40;;;;;;5010482;28;20485;-54
2023/01/05 02:28:57;;;;;;;8.10;2.43;;;9.80;53.70;;;;;;5006615;28;20519;-54
2023/01/05 02:31:27;;;;;;;5.70;2.00;;;9.80;52.50;;;;;;5011500;28;20528;-55
2023/01/05 02:34:06;;;;;;;9.07;2.33;;;9.80;54.50;;;;;;5000461;28;20628;-54
2023/01/05 02:36:39;;;;;;;10.43;2.70;;;9.80;51.40;;;;;;5009673;28;20485;-54
2023/01/05 02:39:11;;;;;;;7.07;2.07;;;9.80;60.30;;;;;;5014288;28;20509;-54
2023/01/05 02:41:44;;;;;;;7.47;2.50;;;9.90;70.40;;;;;;5014296;28;20438;-56
2023/01/05 02:44:15;;;;;;;5.40;2.00;;;9.90;67.40;;;;;;5001892;28;20998;-55
2023/01/05 02:46:43;;;;;;;6.00;2.27;;;10.00;72.00;;;;;;5012622;28;20486;-54
2023/01/05 02:49:10;;;;;;;20.63;3.40;;;9.90;68.20;;;;;;5010130;28;20493;-54
2023/01/05 02:51:41;;;;;;;6.83;1.80;;;9.90;70.70;;;;;;5010728;28;20466;-54
2023/01/05 02:54:14;;;;;;;9.40;2.40;;;10.00;69.60;;;;;;5010167;28;20513;-55
2023/01/05 02:56:48;;;;;;;6.50;2.13;;;10.00;76.10;;;;;;5006682;28;20461;-55
2023/01/05 02:59:21;;;;;;;4.40;2.20;;;9.90;70.30;;;;;;5008716;28;21013;-54
2023/01/05 03:01:54;;;;;;;4.63;1.60;;;9.80;65.00;;;;;;5007245;28;20930;-54
2023/01/05 03:04:23;;;;;;;12.40;3.37;;;9.80;65.10;;;;;;5009597;28;20504;-54
2023/01/05 03:06:56;;;;;;;9.97;3.67;;;9.80;69.20;;;;;;5013953;28;20526;-54
2023/01/05 03:09:25;;;;;;;3.77;1.80;;;9.80;68.40;;;;;;5009903;28;21105;-55
2023/01/05 03:14:47;;;;;;;5.90;2.37;;;9.80;72.20;;;;;;5011567;28;20558;-56
2023/01/05 03:17:22;;;;;;;7.13;2.00;;;9.90;71.80;;;;;;5011376;28;20504;-55
2023/01/05 03:19:49;;;;;;;5.10;2.00;;;9.90;71.50;;;;;;5007107;28;20884;-55
2023/01/05 03:36:27;;;;;;;7.00;2.03;;;9.90;71.90;;;;;;5010516;28;20449;-55
2023/01/05 03:38:58;;;;;;;8.60;2.30;;;9.80;62.10;;;;;;5012889;28;20466;-55
2023/01/05 03:41:26;;;;;;;8.27;2.20;;;9.70;42.30;;;;;;5008532;28;20965;-55
2023/01/05 03:43:53;;;;;;;6.77;2.13;;;9.60;27.60;;;;;;5002640;28;20524;-56
2023/01/05 03:46:21;;;;;;;5.50;1.67;;;9.50;26.60;;;;;;5012349;28;20492;-56
2023/01/05 03:48:50;;;;;;;7.40;2.37;;;9.40;98.90;;;;;;5011211;28;20466;-56
2023/01/05 03:51:16;;;;;;;8.43;1.90;;;9.40;99.90;;;;;;5011187;28;20951;-56
2023/01/05 03:53:43;;;;;;;13.70;1.73;;;9.30;99.90;;;;;;5011136;28;20477;-55
2023/01/05 03:56:10;;;;;;;5.33;1.97;;;9.10;99.90;;;;;;5012223;28;20465;-55
2023/01/05 03:58:36;;;;;;;8.90;2.27;;;9.00;99.90;;;;;;5013835;28;20462;-56
2023/01/05 04:01:03;;;;;;;8.50;2.10;;;8.90;99.90;;;;;;5021745;28;20465;-56
2023/01/05 04:03:30;;;;;;;8.47;2.50;;;8.90;99.90;;;;;;5011671;28;20485;-55
2023/01/05 04:05:58;;;;;;;9.77;2.07;;;8.80;99.90;;;;;;5021556;28;20883;-56
2023/01/05 04:08:24;;;;;;;7.73;2.33;;;8.80;99.90;;;;;;5016644;28;20466;-55
2023/01/05 04:10:52;;;;;;;9.33;2.03;;;8.80;99.90;;;;;;5014432;28;20469;-55
2023/01/05 04:13:18;;;;;;;6.10;1.57;;;8.70;99.90;;;;;;5016959;28;20504;-55
2023/01/05 04:15:45;;;;;;;7.70;1.77;;;8.70;99.90;;;;;;5008576;28;20527;-55
2023/01/05 04:18:12;;;;;;;4.43;1.80;;;8.70;99.90;;;;;;5007711;28;20910;-55
2023/01/05 04:20:38;;;;;;;5.23;1.93;;;8.70;99.90;;;;;;5013683;28;20458;-55
2023/01/05 04:23:06;;;;;;;4.90;1.47;;;8.70;99.90;;;;;;5007699;28;20463;-55
2023/01/05 04:25:33;;;;;;;6.67;2.07;;;8.60;99.90;;;;;;5010984;28;20470;-55
2023/01/05 04:27:59;;;;;;;5.50;1.73;;;8.60;99.90;;;;;;5015652;28;20516;-55
2023/01/05 04:30:30;;;;;;;5.03;1.80;;;8.60;99.90;;;;;;5012483;28;20523;-54
2023/01/05 04:32:56;;;;;;;4.90;2.13;;;8.60;99.90;;;;;;5004925;28;20469;-57
2023/01/05 04:35:23;;;;;;;5.53;2.10;;;8.60;99.90;;;;;;5012038;28;20473;-55
2023/01/05 04:37:49;;;;;;;2.93;1.70;;;8.60;99.90;;;;;;5008421;28;20467;-56
2023/01/05 04:40:17;;;;;;;4.80;1.90;;;8.60;99.90;;;;;;5012645;28;20527;-54
2023/01/05 04:42:44;;;;;;;4.23;1.50;;;8.60;99.90;;;;;;5020989;28;20518;-54
2023/01/05 04:45:11;;;;;;;2.40;1.13;;;8.50;99.90;;;;;;5013025;28;20482;-53
2023/01/05 04:47:37;;;;;;;3.00;1.00;;;8.50;99.90;;;;;;5002376;28;20826;-53
2023/01/05 04:50:05;;;;;;;2.20;0.80;;;8.50;99.90;;;;;;5011572;28;20449;-55
2023/01/05 04:52:32;;;;;;;2.47;1.00;;;8.40;99.90;;;;;;5011210;28;20467;-55
2023/01/05 04:54:58;;;;;;;2.20;1.13;;;8.40;99.90;;;;;;5011836;28;20844;-54
2023/01/05 04:57:26;;;;;;;4.47;2.17;;;8.40;99.90;;;;;;5008100;28;20466;-54
2023/01/05 04:59:53;;;;;;;2.30;1.00;;;8.50;99.90;;;;;;5011644;28;20470;-54
2023/01/05 05:02:19;;;;;;;4.77;1.60;;;8.50;99.90;;;;;;5005972;28;20467;-54
2023/01/05 05:04:46;;;;;;;2.60;1.10;;;8.50;99.90;;;;;;5004441;28;20536;-56
2023/01/05 05:07:13;;;;;;;3.50;1.63;;;8.50;99.90;;;;;;5008697;28;21021;-53
2023/01/05 05:09:40;;;;;;;4.97;1.20;;;8.50;99.90;;;;;;5008023;28;20554;-54
2023/01/05 05:12:07;;;;;;;6.40;2.90;;;8.50;99.90;;;;;;4996331;28;20490;-54
2023/01/05 05:14:35;;;;;;;7.30;1.60;;;8.50;99.90;;;;;;5004593;28;20545;-55
2023/01/05 05:17:02;;;;;;;4.00;1.70;;;8.50;99.90;;;;;;5004558;28;20526;-55
2023/01/05 05:19:28;;;;;;;7.13;1.50;;;8.50;99.90;;;;;;5005119;28;20520;-55
2023/01/05 05:21:55;;;;;;;3.30;1.53;;;8.50;99.90;;;;;;5011613;28;20519;-56
2023/01/05 05:24:21;;;;;;;2.77;1.33;;;8.50;99.90;;;;;;5007845;28;20536;-54
2023/01/05 05:26:48;;;;;;;4.27;1.30;;;8.40;99.90;;;;;;5000281;28;21070;-56
2023/01/05 05:29:15;;;;;;;2.77;1.10;;;8.40;99.90;;;;;;5008771;28;20858;-54
2023/01/05 05:31:43;;;;;;;5.40;2.13;;;8.40;99.90;;;;;;5008753;28;20462;-54
2023/01/05 05:34:09;;;;;;;5.37;1.27;;;8.40;99.90;;;;;;5006248;28;20495;-54
2023/01/05 05:36:36;;;;;;;2.30;1.20;;;8.30;99.90;;;;;;5015549;28;20493;-55
2023/01/05 05:39:03;;;;;;;1.90;1.03;;;8.30;99.90;;;;;;5010197;28;20475;-56
2023/01/05 05:41:30;;;;;;;2.80;1.00;;;8.30;99.90;;;;;;5008055;28;20528;-55
2023/01/05 05:43:59;;;;;;;1.70;0.70;;;8.20;99.90;;;;;;5010728;28;20557;-54
2023/01/05 05:46:26;;;;;;;1.80;1.00;;;8.20;99.90;;;;;;5007265;28;20457;-55
2023/01/05 05:48:54;;;;;;;2.67;0.50;;;8.10;99.90;;;;;;5006869;28;20467;-53
2023/01/05 05:51:21;;;;;;;1.53;0.93;;;8.10;99.90;;;;;;5012432;28;20521;-53
2023/01/05 05:53:47;;;;;;;1.37;0.80;;;8.10;99.90;;;;;;5011150;28;20485;-54
2023/01/05 05:56:14;;;;;;;0.80;0.63;;;8.10;99.90;;;;;;5020282;28;20512;-54
2023/01/05 05:58:40;;;;;;;0.70;0.70;;;8.10;99.90;;;;;;5012641;28;20466;-54
2023/01/05 06:01:07;;;;;;;0.87;0.60;;;8.10;99.90;;;;;;5015502;28;20532;-55
2023/01/05 06:03:34;;;;;;;1.30;0.83;;;8.20;99.90;;;;;;5012615;28;21271;-53
2023/01/05 06:06:02;;;;;;;1.33;0.60;;;8.20;99.90;;;;;;5014973;28;20990;-54
2023/01/05 06:08:29;;;;;;;1.27;0.80;;;8.20;99.90;;;;;;5009352;28;20508;-55
2023/01/05 06:10:56;;;;;;;0.90;0.70;;;8.10;99.90;;;;;;5009187;28;20447;-54
2023/01/05 06:13:23;;;;;;;2.20;0.70;;;8.00;99.90;;;;;;5001730;28;21069;-55
2023/01/05 06:15:50;;;;;;;1.77;0.63;;;8.00;99.90;;;;;;5003996;28;20838;-56
2023/01/05 06:18:17;;;;;;;0.90;0.70;;;8.00;99.90;;;;;;5010612;28;20466;-55
2023/01/05 06:20:44;;;;;;;1.93;0.80;;;7.90;99.90;;;;;;5006622;28;21108;-53
2023/01/05 06:23:12;;;;;;;0.97;0.63;;;8.00;99.90;;;;;;4998874;28;20447;-55
2023/01/05 06:25:38;;;;;;;0.60;0.53;;;8.00;99.90;;;;;;4994947;28;20903;-55
2023/01/05 06:28:05;;;;;;;1.47;0.67;;;7.90;99.90;;;;;;5012683;28;20516;-54
2023/01/05 06:30:32;;;;;;;1.23;0.70;;;8.00;99.90;;;;;;5010331;28;20976;-57
2023/01/05 06:32:58;;;;;;;1.17;0.70;;;8.00;99.90;;;;;;5013909;28;20917;-54
2023/01/05 06:35:25;;;;;;;0.70;0.60;;;8.00;99.90;;;;;;5010941;28;20462;-55
2023/01/05 06:37:51;;;;;;;1.47;0.70;;;8.10;99.90;;;;;;5004234;28;20831;-55
2023/01/05 06:40:19;;;;;;;2.40;0.80;;;8.10;99.90;;;;;;5013213;28;20465;-56
2023/01/05 06:42:46;;;;;;;1.87;0.60;;;8.10;99.90;;;;;;5008483;28;20466;-56
2023/01/05 06:45:14;;;;;;;0.97;0.63;;;8.20;99.90;;;;;;5006273;28;20521;-56
2023/01/05 06:47:42;;;;;;;1.43;0.60;;;8.20;99.90;;;;;;5011765;28;20482;-55
2023/01/05 06:50:09;;;;;;;0.80;0.80;;;8.20;99.90;;;;;;5012025;28;20964;-53
2023/01/05 06:52:38;;;;;;;1.97;0.73;;;8.10;99.90;;;;;;5012190;28;20468;-55
2023/01/05 06:55:06;;;;;;;1.30;0.90;;;8.00;99.90;;;;;;5008296;28;20534;-55
2023/01/05 06:57:35;;;;;;;1.77;0.70;;;8.10;99.90;;;;;;5001517;28;20559;-55
2023/01/05 07:00:02;;;;;;;1.23;0.70;;;8.10;99.90;;;;;;5010859;28;20860;-55
2023/01/05 07:02:28;;;;;;;1.80;0.90;;;8.10;99.90;;;;;;5000847;28;20616;-56
2023/01/05 07:04:55;;;;;;;1.00;0.90;;;8.10;99.90;;;;;;5008042;28;21024;-55
2023/01/05 07:07:22;;;;;;;1.43;0.70;;;8.00;99.90;;;;;;5013076;28;20552;-55
2023/01/05 07:09:48;;;;;;;0.93;0.70;;;8.00;94.10;;;;;;5013760;28;20458;-56
2023/01/05 07:12:15;;;;;;;3.47;0.70;;;8.00;86.80;;;;;;5011472;28;20466;-56
2023/01/05 07:14:43;;;;;;;1.27;0.90;;;8.00;30.30;;;;;;5011458;28;20494;-55
2023/01/05 07:17:11;;;;;;;0.73;0.73;;;8.00;28.10;;;;;;5011784;28;20458;-56
2023/01/05 07:19:37;;;;;;;4.10;1.90;;;8.00;27.40;;;;;;5011322;28;20459;-53
2023/01/05 07:22:04;;;;;;;1.03;0.93;;;7.90;24.30;;;;;;5007112;28;20495;-55
2023/01/05 07:24:31;;;;;;;0.67;0.67;;;7.90;31.20;;;;;;5009433;28;20541;-54
2023/01/05 07:26:58;;;;;;;2.30;1.00;;;7.90;26.20;;;;;;5008595;28;20962;-54
2023/01/05 07:29:24;;;;;;;0.93;0.70;;;7.80;31.90;;;;;;5009679;28;20832;-53
2023/01/05 07:31:52;;;;;;;1.90;0.83;;;7.80;27.20;;;;;;5009363;28;20515;-54
2023/01/05 07:34:20;;;;;;;0.80;0.60;;;7.80;35.00;;;;;;5010090;28;20486;-54
2023/01/05 07:36:46;;;;;;;1.07;0.97;;;7.80;41.30;;;;;;5012335;28;20512;-53
2023/01/05 07:39:13;;;;;;;1.47;1.40;;;7.80;49.80;;;;;;5023277;28;20460;-56
2023/01/05 07:41:40;;;;;;;2.27;2.00;;;7.90;52.40;;;;;;5012243;28;20461;-55
2023/01/05 07:44:07;;;;;;;1.20;0.97;;;7.80;49.80;;;;;;5015825;28;20482;-54
2023/01/05 07:46:33;;;;;;;1.47;0.90;;;7.90;50.80;;;;;;4999279;28;20470;-54
2023/01/05 07:49:02;;;;;;;2.00;0.70;;;7.90;43.20;;;;;;5004185;28;20483;-55
2023/01/05 07:51:29;;;;;;;0.60;0.60;;;7.80;48.10;;;;;;5011150;28;20951;-55
2023/01/05 07:53:56;;;;;;;2.30;0.90;;;7.80;42.00;;;;;;5007972;28;20486;-54
2023/01/05 07:56:23;;;;;;;0.90;0.70;;;7.90;60.30;;;;;;5010202;28;20517;-55
2023/01/05 07:58:49;;;;;;;1.20;0.83;;;7.90;54.80;;;;;;5004598;28;20499;-53
2023/01/05 08:01:17;;;;;;;0.80;0.80;;;7.90;55.40;;;;;;5003965;28;20991;-55
2023/01/05 08:03:44;;;;;;;1.57;0.90;;;7.90;69.90;;;;;;5005999;28;20565;-54
2023/01/05 08:06:13;;;;;;;1.07;0.93;;;7.90;68.00;;;;;;5004080;28;20458;-54
2023/01/05 08:08:40;;;;;;;1.40;0.80;;;7.90;70.80;;;;;;5011349;28;20558;-56
2023/01/05 08:11:08;;;;;;;1.83;0.97;;;7.90;61.70;;;;;;5006410;28;20469;-56
2023/01/05 08:16:20;;;;;;;1.97;1.27;;;7.90;64.30;;;;;;5013400;23;20513;-53
2023/01/05 08:18:46;;;;;;;2.20;2.00;;;7.80;54.90;;;;;;5010395;28;20501;-53
2023/01/05 08:21:15;;;;;;;1.67;1.17;;;7.80;64.80;;;;;;5005152;28;21000;-53
2023/01/05 08:23:41;;;;;;;1.70;0.80;;;7.90;74.50;;;;;;5012601;28;20466;-52
2023/01/05 08:26:10;;;;;;;2.83;2.00;;;7.80;74.50;;;;;;5011314;28;20486;-53
2023/01/05 08:28:38;;;;;;;4.60;1.23;;;7.90;72.70;;;;;;4997377;28;20639;-52
2023/01/05 08:31:06;;;;;;;2.60;0.97;;;7.90;79.70;;;;;;5001986;28;20533;-52
2023/01/05 08:33:33;;;;;;;2.67;2.30;;;7.90;75.60;;;;;;5013316;28;20519;-55
2023/01/05 08:36:00;;;;;;;1.70;0.90;;;7.90;72.60;;;;;;5009626;28;20552;-57
2023/01/05 08:38:28;;;;;;;1.37;0.60;;;7.90;73.30;;;;;;5006231;28;20540;-51
2023/01/05 08:40:58;;;;;;;5.07;2.73;;;7.90;90.90;;;;;;5000213;28;20507;-57
2023/01/05 08:43:25;;;;;;;1.63;1.03;;;8.10;79.30;;;;;;5000418;28;20462;-50
2023/01/05 08:45:51;;;;;;;7.40;2.30;;;8.20;98.90;;;;;;5009095;28;20556;-50
2023/01/05 08:48:18;;;;;;;3.00;2.50;;;8.40;83.70;;;;;;5010107;28;20520;-50
2023/01/05 08:50:44;;;;;;;6.00;3.17;;;8.30;99.90;;;;;;4994496;28;20494;-51
2023/01/05 08:53:11;;;;;;;1.20;0.90;;;8.50;99.90;;;;;;4998149;28;20518;-53
2023/01/05 08:55:39;;;;;;;3.50;1.30;;;8.60;99.90;;;;;;5005186;28;20998;-52
2023/01/05 08:58:06;;;;;;;2.50;1.50;;;8.90;99.90;;;;;;4998517;28;20557;-51
2023/01/05 09:00:33;;;;;;;4.10;3.53;;;8.70;99.90;;;;;;5006009;28;20534;-50
2023/01/05 09:02:59;;;;;;;1.80;1.70;;;8.60;99.90;;;;;;5002594;28;20480;-50
2023/01/05 09:05:26;;;;;;;7.33;4.50;;;8.80;99.90;;;;;;5007197;28;20495;-50
2023/01/05 09:07:53;;;;;;;6.17;1.70;;;9.00;99.90;;;;;;5008426;28;20541;-50
2023/01/05 09:10:19;;;;;;;5.83;4.87;;;8.90;99.90;;;;;;5000129;28;20587;-55
2023/01/05 09:12:47;;;;;;;3.40;2.80;;;8.80;99.90;;;;;;5000056;28;20511;-52
2023/01/05 09:15:14;;;;;;;2.40;1.30;;;8.90;99.90;;;;;;4996475;28;20470;-53
2023/01/05 09:17:40;;;;;;;3.27;2.30;;;8.80;99.90;;;;;;5005056;28;20893;-52
2023/01/05 09:20:08;;;;;;;1.27;0.87;;;8.70;99.90;;;;;;5000936;28;20957;-51
2023/01/05 09:22:35;;;;;;;8.53;4.00;;;8.70;99.90;;;;;;5002929;28;20848;-50
2023/01/05 09:25:03;;;;;;;2.70;1.67;;;8.70;99.90;;;;;;5001258;28;20544;-53
2023/01/05 09:27:29;;;;;;;4.37;1.70;;;8.60;99.90;;;;;;5011483;28;20476;-52
2023/01/05 09:29:57;;;;;;;2.30;1.37;;;8.50;99.90;;;;;;5015581;28;20516;-53
2023/01/05 09:32:24;;;;;;;3.77;1.40;;;8.50;99.90;;;;;;5007983;28;20849;-52
2023/01/05 09:34:51;;;;;;;1.57;1.40;;;8.50;99.90;;;;;;5006788;28;20461;-52
2023/01/05 09:37:17;;;;;;;3.40;1.20;;;8.60;99.90;;;;;;5011596;28;20482;-53
2023/01/05 09:39:44;;;;;;;3.97;1.30;;;8.60;99.90;;;;;;5007545;28;20890;-52
2023/01/05 09:42:14;;;;;;;2.50;0.97;;;8.60;99.90;;;;;;5010839;28;20476;-52
2023/01/05 09:44:46;;;;;;;3.00;1.30;;;8.60;99.90;;;;;;5002014;28;20839;-53
2023/01/05 09:47:18;;;;;;;4.70;1.73;;;8.60;99.90;;;;;;5010851;28;20944;-52
2023/01/05 09:49:46;;;;;;;7.80;2.07;;;8.60;99.90;;;;;;5014235;28;20486;-53
2023/01/05 09:52:13;;;;;;;3.80;1.30;;;8.70;99.90;;;;;;5013751;28;20523;-52
2023/01/05 09:54:40;;;;;;;7.77;1.10;;;8.70;99.90;;;;;;5006510;28;21022;-52
2023/01/05 09:57:15;;;;;;;4.50;1.57;;;8.70;99.90;;;;;;5015047;28;20470;-53
2023/01/05 09:59:44;;;;;;;2.60;1.40;;;8.70;99.90;;;;;;5012316;28;20478;-52
2023/01/05 10:02:20;;;;;;;2.63;1.10;;;8.70;99.90;;;;;;5005315;28;20517;-52
2023/01/05 10:04:48;;;;;;;3.80;1.27;;;8.70;99.90;;;;;;5008076;28;20494;-52
2023/01/05 10:07:20;;;;;;;1.37;1.13;;;8.80;99.90;;;;;;5012416;28;20529;-52
2023/01/05 10:09:48;;;;;;;7.20;1.30;;;8.80;99.90;;;;;;5002791;28;20589;-52
2023/01/05 10:15:10;;;;;;;1.73;1.07;;;8.90;99.90;;;;;;5002793;28;20465;-53
2023/01/05 10:17:39;;;;;;;2.30;1.07;;;8.90;99.90;;;;;;5012831;28;20494;-53
2023/01/05 10:20:15;;;;;;;1.73;1.27;;;9.00;99.90;;;;;;5001148;28;20541;-51
2023/01/05 10:22:49;;;;;;;3.50;1.10;;;9.00;99.90;;;;;;4993563;28;20828;-53
2023/01/05 10:25:21;;;;;;;3.43;1.23;;;9.00;99.90;;;;;;5002866;28;20461;-52
2023/01/05 10:27:53;;;;;;;5.97;1.40;;;9.00;99.90;;;;;;5013083;28;20454;-52
2023/01/05 10:30:23;;;;;;;4.07;1.30;;;9.20;99.90;;;;;;5012132;28;20967;-56
2023/01/05 10:32:58;;;;;;;4.67;1.30;;;9.20;99.90;;;;;;5008910;28;20498;-55
2023/01/05 10:35:48;;;;;;;6.90;1.60;;;9.20;99.90;;;;;;5007224;28;20836;-51
2023/01/05 10:38:26;;;;;;;2.70;1.03;;;9.10;92.10;;;;;;5002796;28;20461;-50
2023/01/05 10:41:04;;;;;;;5.27;1.20;;;9.20;78.10;;;;;;5004084;28;20827;-52
2023/01/05 10:43:48;;;;;;;4.17;1.50;;;9.10;99.90;;;;;;5010555;28;20464;-52
2023/01/05 10:46:17;;;;;;;1.30;1.00;;;9.10;99.90;;;;;;5012542;28;20539;-51
2023/01/05 10:48:45;;;;;;;3.77;1.13;;;9.20;99.90;;;;;;5004259;28;20593;-56
2023/01/05 10:51:11;;;;;;;7.40;1.30;;;9.20;99.90;;;;;;5005117;28;20469;-53
2023/01/05 10:53:41;;;;;;;2.50;1.10;;;9.10;99.90;;;;;;4998646;28;20473;-51
2023/01/05 10:56:13;;;;;;;9.13;1.80;;;9.10;99.90;;;;;;5005845;28;20884;-52
2023/01/05 10:58:42;;;;;;;6.03;1.67;;;9.10;99.90;;;;;;5011806;28;20466;-56
2023/01/05 11:01:23;;;;;;;3.30;1.53;;;9.10;99.90;;;;;;5004401;28;21024;-51
2023/01/05 11:03:55;;;;;;;5.47;1.30;;;9.00;99.90;;;;;;4998905;28;20458;-51
2023/01/05 11:06:24;;;;;;;2.17;1.47;;;9.00;99.90;;;;;;5013496;28;20532;-50
2023/01/05 11:08:51;;;;;;;7.40;1.40;;;9.00;99.90;;;;;;5013935;28;20545;-50
2023/01/05 11:11:24;;;;;;;3.47;1.10;;;9.00;99.90;;;;;;5003879;28;20517;-51
2023/01/05 11:13:54;;;;;;;5.33;1.30;;;9.10;99.90;;;;;;5004421;28;20478;-51
2023/01/05 11:16:25;;;;;;;3.93;1.40;;;9.10;99.90;;;;;;4999440;28;20656;-51
2023/01/05 11:18:55;;;;;;;6.00;1.30;;;9.00;99.90;;;;;;5004724;28;20947;-50
2023/01/05 11:21:23;;;;;;;4.67;1.57;;;9.00;99.90;;;;;;5007341;28;20470;-50
2023/01/05 11:23:52;;;;;;;1.70;1.30;;;9.00;99.90;;;;;;5005212;28;20595;-50
2023/01/05 11:26:28;;;;;;;3.27;1.10;;;9.10;99.90;;;;;;5009617;28;20483;-52
2023/01/05 11:29:13;;;;;;;6.33;1.90;;;9.00;99.90;;;;;;4997714;28;20517;-51
2023/01/05 11:31:44;;;;;;;6.00;1.30;;;9.00;99.90;;;;;;5007067;28;20497;-50
2023/01/05 11:34:28;;;;;;;5.03;1.33;;;9.00;99.90;;;;;;5007842;28;20498;-51
2023/01/05 11:36:57;;;;;;;8.70;1.40;;;9.10;99.90;;;;;;5005225;28;20849;-50
2023/01/05 11:39:28;;;;;;;5.23;1.40;;;9.20;99.90;;;;;;5003721;28;20493;-51
2023/01/05 11:42:15;;;;;;;6.10;1.67;;;9.20;99.90;;;;;;5011409;28;21187;-51
2023/01/05 11:44:44;;;;;;;4.87;1.13;;;9.20;99.90;;;;;;5009745;28;20489;-51
2023/01/05 11:47:21;;;;;;;3.63;1.40;;;9.20;99.90;;;;;;5010061;28;20554;-50
2023/01/05 11:49:49;;;;;;;11.13;1.97;;;9.20;99.90;;;;;;5000293;28;20644;-51
2023/01/05 11:52:31;;;;;;;5.53;1.60;;;9.20;99.90;;;;;;5006451;28;20501;-50
2023/01/05 11:54:58;;;;;;;1.37;1.27;;;9.20;99.90;;;;;;5004820;28;20885;-51
2023/01/05 11:57:25;;;;;;;3.17;1.27;;;9.20;99.90;;;;;;5005779;28;20510;-50
2023/01/05 11:59:54;;;;;;;9.53;1.53;;;9.20;99.90;;;;;;5005895;28;20474;-51
2023/01/05 12:03:01;;;;;;;5.40;1.47;;;9.20;99.90;;;;;;5002376;28;20471;-51
2023/01/05 12:05:39;;;;;;;4.77;1.33;;;9.20;99.90;;;;;;5006999;28;20543;-51
2023/01/05 12:08:10;;;;;;;4.27;1.20;;;9.20;99.90;;;;;;5008862;28;20547;-50
2023/01/05 12:10:50;;;;;;;10.40;2.30;;;9.20;99.90;;;;;;5006968;28;20484;-51
2023/01/05 12:13:41;;;;;;;8.83;1.67;;;9.10;99.90;;;;;;5006374;28;20512;-52
2023/01/05 12:16:23;;;;;;;4.00;1.40;;;9.20;99.90;;;;;;5001510;28;20525;-52
2023/01/05 12:19:16;;;;;;;3.90;1.40;;;10.00;21.40;;;;;;5004992;28;20484;-52
2023/01/05 12:21:52;;;;;;;7.03;1.60;;;9.80;40.90;;;;;;5009706;28;20469;-52
2023/01/05 12:24:40;;;;;;;1.60;1.10;;;9.80;30.90;;;;;;5008870;28;20529;-50
2023/01/05 12:27:18;;;;;;;6.93;1.90;;;9.50;80.40;;;;;;5003662;28;20490;-50
2023/01/05 12:30:09;;;;;;;7.00;1.40;;;9.30;99.90;;;;;;5002934;28;20481;-51
2023/01/05 12:32:49;;;;;;;7.80;2.20;;;9.30;99.90;;;;;;5006981;28;20576;-51
2023/01/05 12:35:56;;;;;;;4.07;1.50;;;9.30;99.90;;;;;;5002445;28;20559;-51
2023/01/05 12:38:36;;;;;;;4.33;1.60;;;9.20;99.90;;;;;;4946369;28;20467;-52
2023/01/05 12:41:23;;;;;;;3.47;1.47;;;9.20;99.90;;;;;;4994889;28;20460;-51
2023/01/05 12:44:01;;;;;;;4.20;1.50;;;9.20;99.90;;;;;;4985359;28;20488;-51
2023/01/05 12:46:41;;;;;;;1.70;1.10;;;9.10;86.30;;;;;;4992301;28;20493;-52
2023/01/05 12:49:13;;;;;;;3.57;1.43;;;9.20;99.90;;;;;;4996736;28;20481;-51
2023/01/05 12:51:46;;;;;;;5.27;1.60;;;9.10;99.90;;;;;;5001461;28;20553;-51
2023/01/05 12:54:27;;;;;;;2.50;1.37;;;9.20;99.90;;;;;;5000209;28;20487;-52
2023/01/05 12:56:59;;;;;;;0.80;0.77;;;9.10;60.80;;;;;;4998831;28;20486;-52
2023/01/05 12:59:33;;;;;;;7.30;1.23;;;9.10;77.70;;;;;;4994667;28;20491;-51
2023/01/05 13:02:04;;;;;;;2.53;1.07;;;9.00;77.00;;;;;;4997549;28;20467;-50
2023/01/05 13:04:39;;;;;;;3.33;1.57;;;9.00;84.70;;;;;;5002753;28;20485;-51
2023/01/05 13:07:10;;;;;;;1.20;1.10;;;8.90;74.90;;;;;;5006627;28;20547;-51
2023/01/05 13:09:38;;;;;;;3.23;1.20;;;9.00;63.30;;;;;;4940980;28;53628;-51
2023/01/05 13:12:08;;;;;;;4.47;0.97;;;8.80;85.30;;;;;;5018641;28;20490;-52
2023/01/05 13:14:37;;;;;;;4.57;1.17;;;8.70;88.00;;;;;;5001203;28;20462;-51
2023/01/05 13:17:07;;;;;;;7.23;1.37;;;8.60;79.00;;;;;;4996291;28;20620;-52
2023/01/05 13:19:37;;;;;;;1.67;1.27;;;8.60;80.80;;;;;;5005595;28;20482;-52
2023/01/05 13:22:11;;;;;;;5.77;1.10;;;8.40;73.20;;;;;;5004643;28;20470;-52
2023/01/05 13:24:50;;;;;;;5.20;1.10;;;8.30;68.60;;;;;;4999514;28;21042;-52
2023/01/05 13:27:17;;;;;;;4.07;1.20;;;8.30;62.40;;;;;;4990544;28;21005;-51
2023/01/05 13:29:47;;;;;;;9.43;1.47;;;8.40;62.90;;;;;;4989352;28;20491;-51
2023/01/05 13:32:37;;;;;;;2.60;1.20;;;8.40;62.90;;;;;;5004480;28;20457;-52
2023/01/05 13:35:28;;;;;;;2.03;1.00;;;8.60;67.20;;;;;;5003474;28;20466;-51
2023/01/05 13:38:19;;;;;;;1.43;1.30;;;8.70;87.80;;;;;;5003043;28;20463;-50
2023/01/05 13:41:03;;;;;;;4.63;2.50;;;8.70;75.30;;;;;;4996737;28;20459;-51
2023/01/05 13:43:55;;;;;;;1.60;1.27;;;8.80;94.60;;;;;;5004407;28;20458;-52
2023/01/05 13:46:44;;;;;;;2.40;1.27;;;8.70;98.70;;;;;;5006290;28;20478;-51